AEE37J LGAV-LGMK
Flight info
| Callsign | AEE37J |
|---|---|
| Flight time | 0h 31m |
| Altitude | 17000 |
| Route | KEA L995 VARIX |
| Aircraft | A320/M-SDE2GHIJ1RTWY/SB1 |
Departure
| Time | 2026-04-26 11:29 |
|---|---|
| Airport | Athens Eleftherios Venizelos International Airport (LGAV) |
Arrival
| Time | 2026-04-26 12:00 |
|---|---|
| Airport | Mykonos Island National Airport (LGMK) |
| Time | Latitude | Longitude | Altitude | Speed | Heading |
|---|---|---|---|---|---|
| 2026-04-26 10:57 | 37.94136 | 23.95334 | 303 ft | 0 kts | 218° |
| 2026-04-26 11:08 | 37.94136 | 23.95335 | 301 ft | 2 kts | 218° |
| 2026-04-26 11:09 | 37.94150 | 23.95348 | 302 ft | 2 kts | 218° |
| 2026-04-26 11:09 | 37.94164 | 23.95361 | 303 ft | 2 kts | 218° |
| 2026-04-26 11:09 | 37.94177 | 23.95375 | 302 ft | 3 kts | 202° |
| 2026-04-26 11:09 | 37.94195 | 23.95379 | 301 ft | 2 kts | 170° |
| 2026-04-26 11:10 | 37.94208 | 23.95377 | 301 ft | 3 kts | 160° |
| 2026-04-26 11:10 | 37.94223 | 23.95366 | 302 ft | 3 kts | 124° |
| 2026-04-26 11:10 | 37.94232 | 23.95347 | 301 ft | 3 kts | 128° |
| 2026-04-26 11:10 | 37.94236 | 23.95341 | 301 ft | 0 kts | 127° |
| 2026-04-26 11:20 | 37.94235 | 23.95343 | 301 ft | 1 kts | 127° |
| 2026-04-26 11:20 | 37.94223 | 23.95363 | 301 ft | 4 kts | 128° |
| 2026-04-26 11:21 | 37.94198 | 23.95403 | 302 ft | 7 kts | 127° |
| 2026-04-26 11:21 | 37.94161 | 23.95465 | 301 ft | 10 kts | 127° |
| 2026-04-26 11:21 | 37.94140 | 23.95542 | 301 ft | 11 kts | 118° |
| 2026-04-26 11:21 | 37.94085 | 23.95633 | 300 ft | 15 kts | 128° |
| 2026-04-26 11:22 | 37.93998 | 23.95611 | 298 ft | 15 kts | 217° |
| 2026-04-26 11:22 | 37.93908 | 23.95526 | 298 ft | 17 kts | 217° |
| 2026-04-26 11:22 | 37.93806 | 23.95428 | 299 ft | 19 kts | 216° |
| 2026-04-26 11:22 | 37.93693 | 23.95321 | 298 ft | 21 kts | 216° |
| 2026-04-26 11:23 | 37.93569 | 23.95204 | 297 ft | 23 kts | 217° |
| 2026-04-26 11:23 | 37.93434 | 23.95077 | 301 ft | 25 kts | 217° |
| 2026-04-26 11:23 | 37.93288 | 23.94938 | 301 ft | 27 kts | 217° |
| 2026-04-26 11:23 | 37.93131 | 23.94789 | 300 ft | 29 kts | 217° |
| 2026-04-26 11:24 | 37.92961 | 23.94628 | 302 ft | 31 kts | 218° |
| 2026-04-26 11:24 | 37.92781 | 23.94458 | 303 ft | 33 kts | 217° |
| 2026-04-26 11:24 | 37.92612 | 23.94298 | 305 ft | 17 kts | 216° |
| 2026-04-26 11:24 | 37.92536 | 23.94324 | 305 ft | 0 kts | 127° |
| 2026-04-26 11:26 | 37.92530 | 23.94334 | 327 ft | 3 kts | 126° |
| 2026-04-26 11:26 | 37.92511 | 23.94367 | 304 ft | 6 kts | 126° |
| 2026-04-26 11:27 | 37.92482 | 23.94420 | 309 ft | 8 kts | 117° |
| 2026-04-26 11:27 | 37.92511 | 23.94477 | 308 ft | 5 kts | 37° |
| 2026-04-26 11:27 | 37.92512 | 23.94478 | 308 ft | 0 kts | 37° |
| 2026-04-26 11:28 | 37.92539 | 23.94503 | 307 ft | 15 kts | 37° |
| 2026-04-26 11:28 | 37.92801 | 23.94753 | 300 ft | 82 kts | 37° |
| 2026-04-26 11:28 | 37.93422 | 23.95343 | 290 ft | 138 kts | 36° |
| 2026-04-26 11:29 | 37.94230 | 23.96103 | 722 ft | 147 kts | 38° |
| 2026-04-26 11:29 | 37.95047 | 23.96899 | 1358 ft | 148 kts | 38° |
| 2026-04-26 11:29 | 37.95863 | 23.97684 | 2064 ft | 146 kts | 37° |
| 2026-04-26 11:29 | 37.96669 | 23.98458 | 2768 ft | 145 kts | 36° |
| 2026-04-26 11:30 | 37.97201 | 23.98968 | 3231 ft | 145 kts | 35° |
| 2026-04-26 11:30 | 37.98034 | 23.99766 | 3749 ft | 157 kts | 36° |
| 2026-04-26 11:30 | 37.98970 | 24.00665 | 4148 ft | 180 kts | 36° |
| 2026-04-26 11:30 | 38.00019 | 24.01673 | 4571 ft | 204 kts | 37° |
| 2026-04-26 11:31 | 38.01217 | 24.02826 | 4957 ft | 228 kts | 37° |
| 2026-04-26 11:31 | 38.02556 | 24.04117 | 5508 ft | 246 kts | 37° |
| 2026-04-26 11:31 | 38.03939 | 24.05448 | 6318 ft | 253 kts | 37° |
| 2026-04-26 11:31 | 38.05234 | 24.07064 | 6886 ft | 271 kts | 58° |
| 2026-04-26 11:32 | 38.05847 | 24.09341 | 7636 ft | 278 kts | 86° |
| 2026-04-26 11:32 | 38.05535 | 24.11755 | 8462 ft | 282 kts | 115° |
| 2026-04-26 11:32 | 38.04325 | 24.13703 | 9324 ft | 286 kts | 144° |
| 2026-04-26 11:32 | 38.02506 | 24.14719 | 10158 ft | 290 kts | 164° |
| 2026-04-26 11:33 | 38.00485 | 24.15388 | 10525 ft | 312 kts | 165° |
| 2026-04-26 11:33 | 37.98302 | 24.16083 | 10744 ft | 335 kts | 165° |
| 2026-04-26 11:33 | 37.95993 | 24.16814 | 10991 ft | 347 kts | 165° |
| 2026-04-26 11:33 | 37.93583 | 24.17584 | 11037 ft | 370 kts | 165° |
| 2026-04-26 11:34 | 37.91030 | 24.18410 | 11035 ft | 383 kts | 165° |
| 2026-04-26 11:34 | 37.88439 | 24.19251 | 11035 ft | 386 kts | 164° |
| 2026-04-26 11:34 | 37.85843 | 24.20093 | 11038 ft | 386 kts | 164° |
| 2026-04-26 11:34 | 37.84916 | 24.20392 | 11045 ft | 386 kts | 165° |
| 2026-04-26 11:35 | 37.82311 | 24.21234 | 11039 ft | 386 kts | 165° |
| 2026-04-26 11:35 | 37.79708 | 24.22080 | 11038 ft | 387 kts | 164° |
| 2026-04-26 11:35 | 37.77103 | 24.22931 | 11044 ft | 386 kts | 164° |
| 2026-04-26 11:35 | 37.74501 | 24.23782 | 11042 ft | 386 kts | 164° |
| 2026-04-26 11:36 | 37.71900 | 24.24631 | 11043 ft | 386 kts | 164° |
| 2026-04-26 11:36 | 37.69300 | 24.25474 | 11043 ft | 386 kts | 164° |
| 2026-04-26 11:36 | 37.66697 | 24.26316 | 11044 ft | 386 kts | 164° |
| 2026-04-26 11:36 | 37.64094 | 24.27157 | 11044 ft | 386 kts | 164° |
| 2026-04-26 11:37 | 37.61493 | 24.28013 | 11043 ft | 386 kts | 162° |
| 2026-04-26 11:37 | 37.59030 | 24.29332 | 11045 ft | 384 kts | 149° |
| 2026-04-26 11:37 | 37.56888 | 24.31311 | 11045 ft | 382 kts | 135° |
| 2026-04-26 11:37 | 37.55170 | 24.33843 | 11040 ft | 380 kts | 122° |
| 2026-04-26 11:38 | 37.53949 | 24.36782 | 11041 ft | 378 kts | 110° |
| 2026-04-26 11:38 | 37.53115 | 24.39920 | 11039 ft | 378 kts | 107° |
| 2026-04-26 11:38 | 37.52298 | 24.43063 | 11036 ft | 378 kts | 107° |
| 2026-04-26 11:38 | 37.51494 | 24.46140 | 11035 ft | 358 kts | 107° |
| 2026-04-26 11:39 | 37.50734 | 24.49037 | 10924 ft | 340 kts | 107° |
| 2026-04-26 11:39 | 37.50006 | 24.51804 | 10749 ft | 327 kts | 107° |
| 2026-04-26 11:39 | 37.49309 | 24.54464 | 10570 ft | 316 kts | 107° |
| 2026-04-26 11:39 | 37.48632 | 24.57062 | 10325 ft | 309 kts | 108° |
| 2026-04-26 11:40 | 37.47967 | 24.59617 | 10101 ft | 306 kts | 108° |
| 2026-04-26 11:40 | 37.47310 | 24.62133 | 9908 ft | 298 kts | 108° |
| 2026-04-26 11:40 | 37.46671 | 24.64565 | 9782 ft | 287 kts | 108° |
| 2026-04-26 11:40 | 37.46051 | 24.66922 | 9643 ft | 281 kts | 108° |
| 2026-04-26 11:41 | 37.45438 | 24.69248 | 9512 ft | 280 kts | 108° |
| 2026-04-26 11:42 | 37.42067 | 24.85666 | 7899 ft | 275 kts | 99° |
| 2026-04-26 11:43 | 37.41754 | 24.88038 | 7759 ft | 275 kts | 99° |
| 2026-04-26 11:43 | 37.41442 | 24.90412 | 7644 ft | 275 kts | 99° |
| 2026-04-26 11:43 | 37.41131 | 24.92784 | 7521 ft | 275 kts | 99° |
| 2026-04-26 11:43 | 37.40819 | 24.95153 | 7399 ft | 275 kts | 99° |
| 2026-04-26 11:44 | 37.40508 | 24.97520 | 7267 ft | 273 kts | 99° |
| 2026-04-26 11:44 | 37.40199 | 24.99880 | 7137 ft | 274 kts | 99° |
| 2026-04-26 11:44 | 37.39888 | 25.02238 | 7025 ft | 274 kts | 99° |
| 2026-04-26 11:44 | 37.39573 | 25.04599 | 6909 ft | 273 kts | 99° |
| 2026-04-26 11:45 | 37.39258 | 25.06941 | 6777 ft | 268 kts | 99° |
| 2026-04-26 11:45 | 37.38952 | 25.09223 | 6563 ft | 263 kts | 99° |
| 2026-04-26 11:45 | 37.38652 | 25.11450 | 6224 ft | 254 kts | 99° |
| 2026-04-26 11:45 | 37.38361 | 25.13600 | 5850 ft | 245 kts | 99° |
| 2026-04-26 11:46 | 37.38077 | 25.15681 | 5452 ft | 238 kts | 100° |
| 2026-04-26 11:46 | 37.37678 | 25.17669 | 5079 ft | 233 kts | 104° |
| 2026-04-26 11:46 | 37.37213 | 25.19629 | 4710 ft | 235 kts | 105° |
| 2026-04-26 11:46 | 37.36726 | 25.21595 | 4325 ft | 237 kts | 105° |
| 2026-04-26 11:47 | 37.36228 | 25.23580 | 3953 ft | 239 kts | 105° |
| 2026-04-26 11:47 | 37.35725 | 25.25574 | 3582 ft | 240 kts | 105° |
| 2026-04-26 11:47 | 37.35218 | 25.27556 | 3243 ft | 233 kts | 105° |
| 2026-04-26 11:47 | 37.34822 | 25.29460 | 2934 ft | 217 kts | 90° |
| 2026-04-26 11:48 | 37.35064 | 25.31235 | 2639 ft | 200 kts | 69° |
| 2026-04-26 11:48 | 37.35535 | 25.32833 | 2365 ft | 189 kts | 65° |
| 2026-04-26 11:48 | 37.36027 | 25.34286 | 2213 ft | 172 kts | 63° |
| 2026-04-26 11:48 | 37.36517 | 25.35613 | 1972 ft | 161 kts | 55° |
| 2026-04-26 11:49 | 37.37283 | 25.36557 | 1810 ft | 148 kts | 24° |
| 2026-04-26 11:49 | 37.38254 | 25.36732 | 1704 ft | 140 kts | 356° |
| 2026-04-26 11:49 | 37.39210 | 25.36592 | 1548 ft | 139 kts | 352° |
| 2026-04-26 11:49 | 37.40145 | 25.36292 | 1332 ft | 139 kts | 345° |
| 2026-04-26 11:50 | 37.41056 | 25.35894 | 1020 ft | 139 kts | 342° |
| 2026-04-26 11:50 | 37.41962 | 25.35509 | 724 ft | 137 kts | 342° |
| 2026-04-26 11:50 | 37.42855 | 25.35108 | 565 ft | 140 kts | 344° |
| 2026-04-26 11:50 | 37.43775 | 25.34725 | 1317 ft | 138 kts | 344° |
| 2026-04-26 11:51 | 37.44731 | 25.34352 | 2076 ft | 153 kts | 343° |
| 2026-04-26 11:51 | 37.45806 | 25.33926 | 2708 ft | 171 kts | 344° |
| 2026-04-26 11:51 | 37.47013 | 25.33414 | 2988 ft | 197 kts | 341° |
| 2026-04-26 11:51 | 37.48314 | 25.32812 | 3153 ft | 200 kts | 340° |
| 2026-04-26 11:52 | 37.49569 | 25.32225 | 3375 ft | 185 kts | 341° |
| 2026-04-26 11:52 | 37.50359 | 25.31858 | 3467 ft | 182 kts | 340° |
| 2026-04-26 11:52 | 37.51550 | 25.30445 | 3508 ft | 188 kts | 288° |
| 2026-04-26 11:52 | 37.51757 | 25.28803 | 3512 ft | 190 kts | 279° |
| 2026-04-26 11:53 | 37.51876 | 25.27138 | 3512 ft | 191 kts | 278° |
| 2026-04-26 11:53 | 37.51930 | 25.25463 | 3507 ft | 195 kts | 264° |
| 2026-04-26 11:53 | 37.51330 | 25.23936 | 3484 ft | 202 kts | 227° |
| 2026-04-26 11:54 | 37.48719 | 25.23353 | 2986 ft | 201 kts | 160° |
| 2026-04-26 11:54 | 37.47403 | 25.23944 | 2753 ft | 201 kts | 158° |
| 2026-04-26 11:54 | 37.46100 | 25.24563 | 2576 ft | 200 kts | 158° |
| 2026-04-26 11:54 | 37.44802 | 25.25183 | 2404 ft | 199 kts | 158° |
| 2026-04-26 11:55 | 37.43511 | 25.25804 | 2227 ft | 199 kts | 158° |
| 2026-04-26 11:55 | 37.42221 | 25.26429 | 2051 ft | 197 kts | 157° |
| 2026-04-26 11:55 | 37.40985 | 25.27018 | 1925 ft | 186 kts | 155° |
| 2026-04-26 11:55 | 37.40144 | 25.27407 | 1880 ft | 191 kts | 158° |
| 2026-04-26 11:56 | 37.39414 | 25.27746 | 1826 ft | 188 kts | 158° |
| 2026-04-26 11:56 | 37.38557 | 25.28122 | 1783 ft | 184 kts | 158° |
| 2026-04-26 11:56 | 37.37357 | 25.28667 | 1805 ft | 183 kts | 157° |
| 2026-04-26 11:56 | 37.36260 | 25.29395 | 1807 ft | 175 kts | 129° |
| 2026-04-26 11:57 | 37.35823 | 25.30682 | 1820 ft | 154 kts | 82° |
| 2026-04-26 11:57 | 37.36005 | 25.31966 | 1730 ft | 147 kts | 68° |
| 2026-04-26 11:57 | 37.36305 | 25.33183 | 1621 ft | 145 kts | 66° |
| 2026-04-26 11:57 | 37.36627 | 25.34371 | 1591 ft | 143 kts | 64° |
| 2026-04-26 11:58 | 37.36984 | 25.35539 | 1556 ft | 142 kts | 60° |
| 2026-04-26 11:58 | 37.37549 | 25.36509 | 1536 ft | 137 kts | 34° |
| 2026-04-26 11:58 | 37.38415 | 25.36846 | 1361 ft | 132 kts | 357° |
| 2026-04-26 11:58 | 37.39315 | 25.36620 | 1181 ft | 134 kts | 346° |
| 2026-04-26 11:59 | 37.40206 | 25.36267 | 1072 ft | 135 kts | 342° |
| 2026-04-26 11:59 | 37.41096 | 25.35883 | 869 ft | 135 kts | 342° |
| 2026-04-26 11:59 | 37.41981 | 25.35491 | 656 ft | 135 kts | 342° |
| 2026-04-26 11:59 | 37.42856 | 25.35109 | 428 ft | 131 kts | 345° |
| 2026-04-26 12:00 | 37.43552 | 25.34805 | 410 ft | 67 kts | 340° |
| 2026-04-26 12:00 | 37.43845 | 25.34676 | 411 ft | 39 kts | 340° |
| 2026-04-26 12:00 | 37.44083 | 25.34571 | 408 ft | 22 kts | 340° |
| 2026-04-26 12:00 | 37.44220 | 25.34510 | 406 ft | 19 kts | 340° |
| 2026-04-26 12:01 | 37.44260 | 25.34468 | 405 ft | 7 kts | 305° |
| 2026-04-26 12:01 | 37.44304 | 25.34476 | 402 ft | 9 kts | 79° |
| 2026-04-26 12:01 | 37.44247 | 25.34502 | 402 ft | 13 kts | 176° |
| 2026-04-26 12:01 | 37.44140 | 25.34544 | 406 ft | 20 kts | 160° |
| 2026-04-26 12:02 | 37.43988 | 25.34612 | 410 ft | 26 kts | 160° |
| 2026-04-26 12:02 | 37.43866 | 25.34665 | 412 ft | 26 kts | 159° |
| 2026-04-26 12:02 | 37.43687 | 25.34725 | 411 ft | 14 kts | 197° |
| 2026-04-26 12:02 | 37.43606 | 25.34672 | 408 ft | 9 kts | 187° |
| 2026-04-26 12:03 | 37.43541 | 25.34696 | 408 ft | 10 kts | 160° |
| 2026-04-26 12:03 | 37.43485 | 25.34711 | 408 ft | 7 kts | 197° |
| 2026-04-26 12:03 | 37.43463 | 25.34659 | 407 ft | 3 kts | 251° |
| 2026-04-26 12:03 | 37.43463 | 25.34657 | 407 ft | 0 kts | 251° |